Time;durP1;ratioP1;P1;durP2;ratioP2;P2;SDS_P1;SDS_P2;PMS_P1;PMS_P2;Temp;Humidity;BMP_temperature;BMP_pressure;BME280_temperature;BME280_humidity;BME280_pressure;Samples;Min_cycle;Max_cycle;Signal;HPM_P1;HPM_P2
2022/09/03 00:01:24;;;;;;;4.00;1.30;;;18.10;90.00;;;;;;6124713;23;20021;-88
2022/09/03 00:04:00;;;;;;;6.43;1.20;;;18.00;90.00;;;;;;6150632;23;20025;-87
2022/09/03 00:06:39;;;;;;;5.05;1.30;;;18.00;90.10;;;;;;6152020;23;20024;-87
2022/09/03 00:09:36;;;;;;;4.57;1.05;;;18.00;90.10;;;;;;6154949;23;20052;-89
2022/09/03 00:12:13;;;;;;;6.65;0.90;;;18.00;90.30;;;;;;6127375;23;20455;-87
2022/09/03 00:30:16;;;;;;;4.32;1.10;;;17.80;90.30;;;;;;6136305;23;20392;-87
2022/09/03 00:32:56;;;;;;;2.78;1.08;;;17.80;90.30;;;;;;6127474;23;20466;-90
2022/09/03 00:35:46;;;;;;;3.63;1.27;;;17.80;90.40;;;;;;6129940;23;20017;-90
2022/09/03 00:38:12;;;;;;;1.83;0.85;;;17.70;90.30;;;;;;6088303;23;20017;-90
2022/09/03 00:41:05;;;;;;;3.80;1.25;;;17.70;90.40;;;;;;6105143;23;20017;-89
2022/09/03 00:43:31;;;;;;;3.28;1.45;;;17.70;90.40;;;;;;6124468;23;20021;-90
2022/09/03 01:45:53;;;;;;;4.60;1.15;;;16.80;91.60;;;;;;6119161;23;20013;-83
2022/09/03 01:48:42;;;;;;;5.13;1.15;;;16.80;91.60;;;;;;6129344;23;20124;-83
2022/09/03 01:51:23;;;;;;;4.43;1.23;;;16.90;91.80;;;;;;6128985;23;20024;-84
2022/09/03 01:54:10;;;;;;;2.45;0.95;;;16.80;91.60;;;;;;6130272;23;20351;-84
2022/09/03 01:56:58;;;;;;;5.28;1.40;;;16.90;91.70;;;;;;6102357;23;20052;-83
2022/09/03 01:59:41;;;;;;;2.50;1.00;;;16.90;91.70;;;;;;6075640;23;20024;-84
2022/09/03 03:01:33;;;;;;;6.13;1.10;;;16.50;92.40;;;;;;6115364;23;20079;-86
2022/09/03 03:03:58;;;;;;;2.97;0.90;;;16.50;92.40;;;;;;6095542;23;20018;-86
2022/09/03 03:06:25;;;;;;;6.75;1.20;;;16.40;92.40;;;;;;6120215;23;20490;-87
2022/09/03 03:08:52;;;;;;;3.55;1.20;;;16.40;92.50;;;;;;6096497;23;20014;-88
2022/09/03 03:11:18;;;;;;;4.28;1.33;;;16.40;92.50;;;;;;6071217;23;20017;-88
2022/09/03 03:13:45;;;;;;;4.35;0.90;;;16.30;92.60;;;;;;6071668;23;20384;-88
2022/09/03 03:31:43;;;;;;;2.80;1.00;;;16.00;93.00;;;;;;6111386;23;20073;-83
2022/09/03 03:34:09;;;;;;;4.18;1.20;;;16.00;93.10;;;;;;6096577;23;20391;-83
2022/09/03 03:36:35;;;;;;;2.22;1.10;;;15.90;93.10;;;;;;6095736;23;20065;-83
2022/09/03 03:39:01;;;;;;;2.58;1.10;;;15.90;93.20;;;;;;6097458;23;20101;-83
2022/09/03 03:41:33;;;;;;;4.20;1.08;;;15.80;93.30;;;;;;6070591;23;20041;-84
2022/09/03 03:44:04;;;;;;;5.22;1.33;;;15.80;93.30;;;;;;6073867;23;20030;-83
2022/09/03 03:46:32;;;;;;;5.20;1.10;;;15.80;93.30;;;;;;6102572;23;20073;-87
2022/09/03 03:48:58;;;;;;;3.63;1.00;;;15.80;93.40;;;;;;6096363;23;20081;-88
2022/09/03 03:51:24;;;;;;;6.35;1.20;;;15.80;93.70;;;;;;6095896;23;20056;-88
2022/09/03 03:53:54;;;;;;;4.63;1.20;;;15.80;93.60;;;;;;6098156;23;20053;-88
2022/09/03 03:56:20;;;;;;;2.75;1.08;;;15.70;93.50;;;;;;6097177;23;20294;-87
2022/09/03 03:58:47;;;;;;;4.25;0.95;;;15.70;93.70;;;;;;6124419;23;20265;-88
2022/09/03 05:00:44;;;;;;;2.90;1.10;;;15.40;94.80;;;;;;6139674;23;20025;-84
2022/09/03 05:03:11;;;;;;;2.80;1.17;;;15.40;94.60;;;;;;6106697;23;20018;-84
2022/09/03 05:05:37;;;;;;;2.42;1.00;;;15.40;94.70;;;;;;6112838;23;20010;-84
2022/09/03 05:08:03;;;;;;;4.38;1.40;;;15.40;94.70;;;;;;6087063;23;20010;-83
2022/09/03 05:10:29;;;;;;;3.38;1.30;;;15.40;94.80;;;;;;6100478;23;20089;-82
2022/09/03 05:12:59;;;;;;;3.33;1.13;;;15.40;95.10;;;;;;6100058;23;20025;-83
2022/09/03 05:15:26;;;;;;;2.17;1.08;;;15.40;94.90;;;;;;6075580;23;20088;-83
2022/09/03 05:17:56;;;;;;;2.53;1.20;;;15.40;95.20;;;;;;6086177;23;20022;-84
2022/09/03 05:20:22;;;;;;;5.65;1.60;;;15.40;94.90;;;;;;6134945;23;20076;-84
2022/09/03 05:22:48;;;;;;;3.63;1.00;;;15.40;94.90;;;;;;6109739;23;20359;-84
2022/09/03 05:25:13;;;;;;;3.83;1.10;;;15.40;94.90;;;;;;6108837;23;20452;-86
2022/09/03 05:27:39;;;;;;;3.45;1.42;;;15.40;94.90;;;;;;6111813;23;20044;-83
2022/09/03 05:30:05;;;;;;;7.63;1.30;;;15.40;95.10;;;;;;6111559;23;20483;-83
2022/09/03 05:32:31;;;;;;;3.55;1.33;;;15.40;95.10;;;;;;6111077;23;20059;-85
2022/09/03 05:34:57;;;;;;;2.95;1.40;;;15.40;95.00;;;;;;6111099;23;20018;-83
2022/09/03 05:37:23;;;;;;;3.10;1.15;;;15.40;95.10;;;;;;6081507;23;20045;-85
2022/09/03 05:39:48;;;;;;;3.63;1.17;;;15.40;95.10;;;;;;6131690;23;20026;-85
2022/09/03 05:42:14;;;;;;;2.88;1.25;;;15.40;95.20;;;;;;6080555;23;20010;-84
2022/09/03 05:44:40;;;;;;;2.58;1.20;;;15.50;95.20;;;;;;6081316;23;20010;-84
2022/09/03 07:16:05;;;;;;;3.38;1.40;;;17.70;93.30;;;;;;6110258;23;20048;-89
2022/09/03 07:18:31;;;;;;;3.92;1.40;;;17.80;93.40;;;;;;6096858;23;20022;-89
2022/09/03 07:21:02;;;;;;;3.10;1.45;;;17.90;93.40;;;;;;6121809;23;20033;-88
2022/09/03 07:23:32;;;;;;;3.55;1.38;;;17.90;92.70;;;;;;6128133;23;20041;-89
2022/09/03 07:26:00;;;;;;;3.60;1.42;;;18.00;92.60;;;;;;6129552;23;20014;-92
2022/09/03 07:28:27;;;;;;;7.60;1.90;;;18.00;92.50;;;;;;6128295;23;20021;-88
2022/09/03 07:33:38;;;;;;;6.03;1.52;;;18.10;92.60;;;;;;6155954;23;20017;-91
2022/09/03 07:36:13;;;;;;;3.92;1.42;;;18.20;93.10;;;;;;6105196;23;20024;-93
2022/09/03 07:38:40;;;;;;;2.63;1.35;;;18.30;92.30;;;;;;6130087;23;20037;-92
2022/09/03 07:41:08;;;;;;;6.43;1.42;;;18.40;92.30;;;;;;6127984;23;20041;-92
2022/09/03 07:43:38;;;;;;;2.78;1.50;;;18.40;92.60;;;;;;6103712;23;20068;-94
2022/09/03 09:03:00;;;;;;;2.08;1.38;;;20.60;90.10;;;;;;6147908;23;20384;-92
2022/09/03 09:05:29;;;;;;;3.33;1.17;;;20.70;90.20;;;;;;6123917;23;20037;-91
2022/09/03 09:08:05;;;;;;;2.75;1.40;;;20.80;90.30;;;;;;6101764;23;20048;-92
2022/09/03 09:10:46;;;;;;;4.18;1.40;;;20.90;90.30;;;;;;6125320;23;20021;-93
2022/09/03 09:13:31;;;;;;;4.22;1.40;;;21.10;90.30;;;;;;6152206;23;20018;-94
2022/09/03 09:16:18;;;;;;;2.70;1.40;;;21.20;90.00;;;;;;6157129;23;20091;-92
2022/09/03 09:24:02;;;;;;;4.22;1.42;;;21.60;88.50;;;;;;6104284;23;20025;-87
2022/09/03 09:26:28;;;;;;;4.40;1.60;;;21.60;87.80;;;;;;6112432;23;20032;-88
2022/09/03 09:29:05;;;;;;;2.83;1.30;;;21.60;87.30;;;;;;6112865;23;19997;-88
2022/09/03 09:31:32;;;;;;;2.47;1.38;;;21.60;88.40;;;;;;6113579;23;20009;-88
2022/09/03 10:34:40;;;;;;;5.80;1.30;;;23.40;83.70;;;;;;6112531;23;20082;-92
2022/09/03 10:37:37;;;;;;;4.03;1.30;;;23.50;83.70;;;;;;6084156;23;20269;-92
2022/09/03 10:40:42;;;;;;;5.40;1.33;;;23.60;84.00;;;;;;6107095;23;20022;-92
2022/09/03 10:43:33;;;;;;;5.88;1.13;;;23.70;84.40;;;;;;6057393;23;20022;-93
2022/09/03 10:46:17;;;;;;;6.22;1.40;;;23.70;84.00;;;;;;6106054;23;20017;-92
2022/09/03 12:44:44;;;;;;;4.28;1.40;;;25.30;72.20;;;;;;6142392;23;20088;-94
2022/09/03 13:47:32;;;;;;;4.67;1.13;;;25.40;69.60;;;;;;6136913;23;20025;-94
2022/09/03 13:50:21;;;;;;;3.72;1.10;;;25.50;69.00;;;;;;6099870;23;20254;-91
2022/09/03 13:53:01;;;;;;;2.60;1.10;;;25.40;70.10;;;;;;6136411;23;20025;-93
2022/09/03 13:55:34;;;;;;;3.25;1.20;;;25.50;70.10;;;;;;6100048;23;20033;-94
2022/09/03 13:58:42;;;;;;;4.53;1.10;;;25.50;69.40;;;;;;6079963;23;20018;-92
2022/09/03 14:01:40;;;;;;;3.42;1.20;;;25.50;68.70;;;;;;6076427;23;20341;-92
2022/09/03 16:18:54;;;;;;;4.13;1.00;;;24.90;70.50;;;;;;6147837;23;20021;-85
2022/09/03 16:21:28;;;;;;;3.65;1.30;;;25.00;70.60;;;;;;6129022;23;20033;-84
2022/09/03 16:24:15;;;;;;;3.55;1.10;;;24.90;70.90;;;;;;6105631;23;20009;-84
2022/09/03 16:26:55;;;;;;;4.30;1.10;;;24.90;70.90;;;;;;6105024;23;20459;-85
2022/09/03 16:29:26;;;;;;;4.47;1.20;;;24.80;71.10;;;;;;6129003;23;20021;-84
2022/09/03 16:32:36;;;;;;;4.60;1.30;;;24.70;71.90;;;;;;6131172;23;20447;-85
2022/09/03 16:35:15;;;;;;;4.85;1.10;;;24.50;71.10;;;;;;6047894;23;20034;-85
2022/09/03 16:37:55;;;;;;;2.28;1.30;;;24.40;71.80;;;;;;6070487;23;20022;-84
2022/09/03 16:40:41;;;;;;;2.55;1.10;;;24.30;72.00;;;;;;6136505;23;20029;-85
2022/09/03 16:43:28;;;;;;;5.22;1.48;;;24.30;72.40;;;;;;6128756;23;20017;-85
2022/09/03 16:45:59;;;;;;;3.90;1.10;;;24.20;72.40;;;;;;6153503;23;20069;-85
2022/09/03 16:48:34;;;;;;;10.50;1.30;;;24.20;72.60;;;;;;6126942;23;20041;-87
2022/09/03 16:51:15;;;;;;;3.80;1.17;;;24.20;72.50;;;;;;6152404;23;20455;-86
2022/09/03 16:54:11;;;;;;;6.10;1.70;;;24.20;72.90;;;;;;6153896;23;20351;-87
2022/09/03 16:56:46;;;;;;;5.78;1.60;;;24.30;72.80;;;;;;6127815;23;20037;-86
2022/09/03 16:59:51;;;;;;;4.82;1.52;;;24.60;72.40;;;;;;6151961;23;20060;-86
2022/09/03 20:11:52;;;;;;;6.85;1.48;;;18.70;90.00;;;;;;6152028;23;20022;-91
2022/09/03 20:14:18;;;;;;;6.95;2.00;;;18.60;90.30;;;;;;6128776;23;20017;-91
2022/09/03 20:17:02;;;;;;;3.10;1.50;;;18.60;90.60;;;;;;6153394;23;20032;-92
2022/09/03 20:19:30;;;;;;;;;;;18.60;90.30;;;;;;6114550;23;20466;-87
2022/09/03 20:22:28;;;;;;;4.18;1.60;;;18.60;90.60;;;;;;6152821;23;19916;-88
2022/09/03 20:25:12;;;;;;;4.82;1.58;;;18.50;90.60;;;;;;6129090;23;20154;-89
2022/09/03 20:27:54;;;;;;;8.52;2.10;;;18.50;90.70;;;;;;6099422;23;20397;-89
2022/09/03 20:30:27;;;;;;;5.43;1.90;;;18.40;91.00;;;;;;6100199;23;20014;-89
2022/09/03 20:32:55;;;;;;;4.03;1.60;;;18.40;91.00;;;;;;6102261;23;20025;-90
2022/09/03 22:03:21;;;;;;;10.98;3.28;;;17.30;93.30;;;;;;6138915;23;20071;-85
2022/09/03 22:50:48;;;;;;;11.82;10.32;;;17.20;92.50;;;;;;6139168;23;20093;-86
2022/09/03 22:53:48;;;;;;;8.38;3.13;;;17.20;92.50;;;;;;6096034;23;20025;-86
2022/09/03 22:56:21;;;;;;;3.03;1.80;;;17.20;92.50;;;;;;6103574;23;20486;-86
2022/09/03 22:59:18;;;;;;;4.53;1.90;;;17.10;92.50;;;;;;6112902;23;20021;-86
2022/09/03 23:02:02;;;;;;;6.13;2.55;;;17.10;92.70;;;;;;6073053;23;20022;-85
2022/09/03 23:04:35;;;;;;;3.83;1.70;;;17.10;92.50;;;;;;6092887;23;20022;-83
2022/09/03 23:07:36;;;;;;;5.15;2.28;;;17.00;92.40;;;;;;6098746;23;20022;-83
2022/09/03 23:10:09;;;;;;;7.20;2.33;;;17.00;92.40;;;;;;6083349;23;20082;-83
2022/09/03 23:12:43;;;;;;;6.00;1.80;;;17.00;92.40;;;;;;6097825;23;20017;-82
2022/09/03 23:15:15;;;;;;;5.90;2.08;;;17.00;92.40;;;;;;6097601;23;20518;-83
2022/09/03 23:17:50;;;;;;;5.47;1.92;;;17.00;92.40;;;;;;6122447;23;20022;-83
2022/09/03 23:20:21;;;;;;;12.43;8.18;;;16.90;92.40;;;;;;6122506;23;20028;-83
2022/09/03 23:23:16;;;;;;;14.38;12.20;;;16.90;92.40;;;;;;6122692;23;20017;-82
2022/09/03 23:25:52;;;;;;;9.80;6.97;;;16.90;92.40;;;;;;6090837;23;20006;-83
2022/09/03 23:28:27;;;;;;;5.55;4.35;;;16.90;92.40;;;;;;6121734;23;20341;-83
2022/09/03 23:30:57;;;;;;;6.03;2.70;;;16.80;92.40;;;;;;6122978;23;20010;-83
2022/09/03 23:33:23;;;;;;;4.07;2.15;;;16.80;92.30;;;;;;6122559;23;20013;-83
